Aeroporto :
LOGIN :

Iscrizione | Disclaimer

   EN    FR    IT 

 










Sommario :    VFR   VFR Marginale   IFR   IFR Intensivo   IFR Molto Intensivo
Visibilità : 
Base nubi : 
>= 8 km
>= 3000ft
5 / 8 km
1000 / 3000 ft
1500m / 5 km
500 / 1000 ft
800 / 1500m
200 / 500 ft
< 800m
< 200 ft
Simboli :   Temporali  Nebbia  Neve Forte  Precipitazioni Forti  Vento > 20 kt
SIGMETs :   Varie  Temporali  Ghiacco  Turbolenza  Onda orograficha  Ceneri Vulcaniche






- Altitudine del aeroporto : 355 ft
- Codice IATA : VBS


LIPO - Montichiari - Brescia

ULTIMO METAR :
  • 171050Z 25003KT 210V280 4000 BR BKN040 12/06 Q1025

METARs OBSOLETI :
  • 170950Z VRB02KT 4000 BR BKN050 11/06 Q1026
  • 170850Z VRB02KT 4000 BR BKN050 10/06 Q1026

TAF TAF LIPO
Valido dal 17 a 12 ore il 18 a 12 ore UTC


171100Z 1712/1812 VRB05KT 5000 BR SCT040
TEMPO 1712/1724 RA



MetMap, La meteo Aeronautica in un colpo d'occhio ! - Copyright ORBIFLY Dicembre 2007 - Disclaimer

ORBIFLY MET'MAP TEAM :

Programmazione e sviluppo : Alexandra Zaïnal
Concezione : Baudouin d'Aumeries
Aiuto per la programmazione : Marc-Olivier Méhu
Supporto tecnico e logistico : Manuel Goepfert
Aiuto per la traduzione : Arnaldo La Scala

Contatto : metmap@orbifly.com




FONTI E CREDITI :

   NOAA